Time;durP1;ratioP1;P1;durP2;ratioP2;P2;SDS_P1;SDS_P2;PMS_P1;PMS_P2;Temp;Humidity;BMP_temperature;BMP_pressure;BME280_temperature;BME280_humidity;BME280_pressure;Samples;Min_cycle;Max_cycle;Signal;HPM_P1;HPM_P2
2021/01/31 00:00:16;;;;;;;;;;;2.60;99.90;;;;;;10530339;28;19928;-67
2021/01/31 00:05:19;;;;;;;;;;;2.70;99.90;;;;;;10531107;28;20008;-68
2021/01/31 00:10:23;;;;;;;;;;;2.70;99.90;;;;;;10532518;28;19925;-68
2021/01/31 00:15:26;;;;;;;;;;;2.70;99.90;;;;;;10531655;28;19977;-67
2021/01/31 00:20:29;;;;;;;;;;;2.40;99.90;;;;;;10531494;28;20524;-67
2021/01/31 00:25:32;;;;;;;;;;;2.50;99.90;;;;;;10531236;28;20407;-67
2021/01/31 00:30:35;;;;;;;;;;;2.50;99.90;;;;;;10529673;28;20368;-67
2021/01/31 00:35:37;;;;;;;;;;;2.50;99.90;;;;;;10509615;28;20363;-68
2021/01/31 00:40:38;;;;;;;;;;;2.60;99.90;;;;;;10529583;28;19981;-67
2021/01/31 00:45:40;;;;;;;;;;;2.60;99.90;;;;;;10530323;28;19989;-67
2021/01/31 00:50:41;;;;;;;;;;;2.50;99.90;;;;;;10530265;28;20346;-67
2021/01/31 00:55:43;;;;;;;;;;;2.60;99.90;;;;;;10530102;28;19971;-67
2021/01/31 01:00:44;;;;;;;;;;;2.60;99.90;;;;;;10529623;28;20336;-67
2021/01/31 01:05:46;;;;;;;;;;;2.50;99.90;;;;;;10529441;28;19968;-67
2021/01/31 01:10:47;;;;;;;;;;;2.50;99.90;;;;;;10529237;28;20338;-67
2021/01/31 01:15:49;;;;;;;;;;;2.40;99.90;;;;;;10529109;28;19936;-67
2021/01/31 01:20:50;;;;;;;;;;;2.40;99.90;;;;;;10529090;28;20407;-67
2021/01/31 01:25:52;;;;;;;;;;;2.60;99.90;;;;;;10529238;28;19971;-68
2021/01/31 01:30:53;;;;;;;;;;;2.50;99.90;;;;;;10527891;28;20021;-67
2021/01/31 01:35:54;;;;;;;;;;;2.40;99.90;;;;;;10528181;28;19977;-67
2021/01/31 01:40:56;;;;;;;;;;;2.20;99.90;;;;;;10528026;28;20392;-67
2021/01/31 01:46:17;;;;;;;;;;;2.10;99.90;;;;;;10528500;28;20399;-67
2021/01/31 01:51:30;;;;;;;;;;;2.30;99.90;;;;;;10524184;28;20026;-68
2021/01/31 01:56:37;;;;;;;;;;;2.30;99.90;;;;;;10528306;28;19975;-67
2021/01/31 02:01:42;;;;;;;;;;;2.40;99.90;;;;;;10528433;28;19931;-68
2021/01/31 02:06:44;;;;;;;;;;;2.30;99.90;;;;;;10528730;28;19934;-68
2021/01/31 02:11:45;;;;;;;;;;;2.30;99.90;;;;;;10528005;28;20061;-68
2021/01/31 02:16:58;;;;;;;;;;;2.40;99.90;;;;;;10527863;28;19924;-67
2021/01/31 02:22:02;;;;;;;;;;;2.40;99.90;;;;;;10486576;28;19975;-68
2021/01/31 02:27:16;;;;;;;;;;;2.30;99.90;;;;;;10502827;28;19968;-67
2021/01/31 02:32:37;;;;;;;;;;;2.10;99.90;;;;;;10486614;28;19925;-68
2021/01/31 02:37:51;;;;;;;;;;;2.00;99.90;;;;;;10488479;28;19970;-68
2021/01/31 02:42:56;;;;;;;;;;;2.00;99.90;;;;;;10527091;28;19932;-68
2021/01/31 02:48:07;;;;;;;;;;;2.10;99.90;;;;;;10532829;28;20011;-67
2021/01/31 02:53:22;;;;;;;;;;;2.20;99.90;;;;;;10534982;28;19928;-67
2021/01/31 02:58:26;;;;;;;;;;;2.40;99.90;;;;;;10534409;28;19978;-67
2021/01/31 03:03:47;;;;;;;;;;;2.40;99.90;;;;;;10538658;28;19928;-68
2021/01/31 03:08:52;;;;;;;;;;;2.10;99.90;;;;;;10542519;28;19925;-67
2021/01/31 03:14:02;;;;;;;;;;;2.10;99.90;;;;;;10541469;28;19978;-68
2021/01/31 03:19:26;;;;;;;;;;;2.00;99.90;;;;;;10541809;28;19924;-68
2021/01/31 03:24:46;;;;;;;;;;;2.10;99.90;;;;;;10541991;28;20018;-68
2021/01/31 03:29:48;;;;;;;;;;;2.00;99.90;;;;;;10540885;28;19924;-68
2021/01/31 03:34:50;;;;;;;;;;;2.00;99.90;;;;;;10541181;28;20019;-67
2021/01/31 03:39:53;;;;;;;;;;;2.00;99.90;;;;;;10540685;28;20333;-67
2021/01/31 03:44:56;;;;;;;;;;;1.90;99.90;;;;;;10540871;28;19985;-67
2021/01/31 03:49:58;;;;;;;;;;;1.80;99.90;;;;;;10540619;28;19973;-67
2021/01/31 03:55:00;;;;;;;;;;;1.80;99.90;;;;;;10539411;28;19929;-68
2021/01/31 04:00:05;;;;;;;;;;;1.90;99.90;;;;;;10539831;28;19964;-68
2021/01/31 04:05:07;;;;;;;;;;;2.00;99.90;;;;;;10535972;28;20366;-68
2021/01/31 04:10:09;;;;;;;;;;;1.90;99.90;;;;;;10533275;28;19998;-67
2021/01/31 04:15:29;;;;;;;;;;;1.80;99.90;;;;;;10532278;28;20372;-67
2021/01/31 04:20:32;;;;;;;;;;;1.80;99.90;;;;;;10532348;28;19930;-67
2021/01/31 04:25:34;;;;;;;;;;;1.70;99.90;;;;;;10532165;28;19928;-67
2021/01/31 04:30:36;;;;;;;;;;;1.60;99.90;;;;;;10531562;28;19971;-68
2021/01/31 04:35:38;;;;;;;;;;;1.60;99.90;;;;;;10531785;28;19971;-67
2021/01/31 04:40:39;;;;;;;;;;;1.70;99.90;;;;;;10530889;28;19964;-68
2021/01/31 04:45:40;;;;;;;;;;;1.60;99.90;;;;;;10530958;28;20189;-67
2021/01/31 04:51:06;;;;;;;;;;;1.70;99.90;;;;;;10531325;28;20448;-67
2021/01/31 04:56:12;;;;;;;;;;;1.80;99.90;;;;;;10512585;28;19924;-67
2021/01/31 05:01:24;;;;;;;;;;;1.70;99.90;;;;;;10529680;28;19924;-67
2021/01/31 05:06:47;;;;;;;;;;;1.60;99.90;;;;;;10530925;28;20661;-67
2021/01/31 05:11:54;;;;;;;;;;;1.40;99.90;;;;;;10528995;28;20410;-67
2021/01/31 05:16:55;;;;;;;;;;;1.20;99.90;;;;;;10530223;28;19932;-67
2021/01/31 05:21:57;;;;;;;;;;;1.20;99.90;;;;;;10530069;28;20009;-67
2021/01/31 05:27:01;;;;;;;;;;;1.10;99.90;;;;;;10530036;28;19924;-67
2021/01/31 05:32:22;;;;;;;;;;;1.00;99.90;;;;;;10528242;28;19959;-68
2021/01/31 05:37:25;;;;;;;;;;;0.90;99.90;;;;;;10492626;28;19924;-67
2021/01/31 05:42:29;;;;;;;;;;;0.90;99.90;;;;;;10529361;28;19963;-67
2021/01/31 05:47:33;;;;;;;;;;;0.90;99.90;;;;;;10528863;28;19982;-68
2021/01/31 05:52:35;;;;;;;;;;;0.90;99.90;;;;;;10529497;28;19977;-68
2021/01/31 05:57:36;;;;;;;;;;;0.80;99.90;;;;;;10529041;28;20336;-68
2021/01/31 06:02:38;;;;;;;;;;;0.70;99.90;;;;;;10527995;28;19971;-68
2021/01/31 06:07:40;;;;;;;;;;;0.70;99.90;;;;;;10529020;28;20406;-68
2021/01/31 06:12:43;;;;;;;;;;;0.70;99.90;;;;;;10529130;28;19963;-68
2021/01/31 06:17:53;;;;;;;;;;;0.80;99.90;;;;;;10528528;28;20386;-68
2021/01/31 06:22:55;;;;;;;;;;;0.80;99.90;;;;;;10533286;28;20383;-68
2021/01/31 06:28:17;;;;;;;;;;;0.70;99.90;;;;;;10532940;28;19969;-68
2021/01/31 06:33:19;;;;;;;;;;;0.70;99.90;;;;;;10532981;28;20028;-68
2021/01/31 06:38:26;;;;;;;;;;;0.70;99.90;;;;;;10533804;28;20083;-68
2021/01/31 06:43:46;;;;;;;;;;;0.70;99.90;;;;;;10532877;28;20395;-68
2021/01/31 06:48:47;;;;;;;;;;;0.60;99.90;;;;;;10530449;28;20388;-69
2021/01/31 06:54:06;;;;;;;;;;;0.40;99.90;;;;;;10533259;28;20394;-68
2021/01/31 06:59:27;;;;;;;;;;;0.30;99.90;;;;;;10533324;28;20052;-68
2021/01/31 07:04:34;;;;;;;;;;;0.20;99.90;;;;;;10530136;28;19935;-68
2021/01/31 07:09:38;;;;;;;;;;;0.10;99.90;;;;;;10532760;28;19928;-68
2021/01/31 07:14:58;;;;;;;;;;;0.10;99.90;;;;;;10532345;28;19975;-68
2021/01/31 07:20:06;;;;;;;;;;;0.20;99.90;;;;;;10532222;28;19928;-68
2021/01/31 07:25:13;;;;;;;;;;;0.20;99.90;;;;;;10533622;28;19964;-67
2021/01/31 07:30:28;;;;;;;;;;;0.30;99.90;;;;;;10533673;28;20412;-67
2021/01/31 07:35:42;;;;;;;;;;;0.30;99.90;;;;;;10533392;28;19931;-67
2021/01/31 07:40:44;;;;;;;;;;;0.50;99.90;;;;;;10534499;28;20014;-68
2021/01/31 07:45:46;;;;;;;;;;;0.80;99.90;;;;;;10532921;28;19975;-68
2021/01/31 07:50:47;;;;;;;;;;;1.00;99.90;;;;;;10533944;28;20015;-67
2021/01/31 07:55:48;;;;;;;;;;;0.90;99.90;;;;;;10533736;28;19924;-68
2021/01/31 08:00:51;;;;;;;;;;;1.10;99.90;;;;;;10532594;28;19967;-68
2021/01/31 08:05:55;;;;;;;;;;;1.10;99.90;;;;;;10533301;28;19977;-68
2021/01/31 08:10:56;;;;;;;;;;;1.30;99.90;;;;;;10532745;28;19927;-68
2021/01/31 08:15:58;;;;;;;;;;;1.40;99.90;;;;;;10532420;28;19928;-67
2021/01/31 08:20:59;;;;;;;;;;;1.60;99.90;;;;;;10532028;28;20729;-68
2021/01/31 08:26:01;;;;;;;;;;;1.80;99.90;;;;;;10531112;28;19928;-68
2021/01/31 08:31:03;;;;;;;;;;;1.70;99.90;;;;;;10531467;28;19978;-63
2021/01/31 08:36:09;;;;;;;;;;;1.90;99.90;;;;;;10532106;28;19971;-64
2021/01/31 08:41:31;;;;;;;;;;;1.90;99.90;;;;;;10531352;28;20352;-63
2021/01/31 08:46:33;;;;;;;;;;;1.60;99.90;;;;;;10530676;28;19975;-63
2021/01/31 08:51:36;;;;;;;;;;;1.50;99.90;;;;;;10531409;28;20027;-63
2021/01/31 08:56:41;;;;;;;;;;;1.80;99.90;;;;;;10531048;28;20296;-63
2021/01/31 09:01:44;;;;;;;;;;;1.80;99.90;;;;;;10529995;28;20011;-63
2021/01/31 09:06:50;;;;;;;;;;;1.60;99.90;;;;;;10530954;28;20015;-63
2021/01/31 09:11:55;;;;;;;;;;;1.90;99.90;;;;;;10530675;28;19924;-63
2021/01/31 09:17:05;;;;;;;;;;;2.00;99.90;;;;;;10529586;28;20017;-63
2021/01/31 09:22:06;;;;;;;;;;;2.20;99.90;;;;;;10529433;28;19923;-63
2021/01/31 09:27:08;;;;;;;;;;;2.50;99.90;;;;;;10530075;28;19928;-63
2021/01/31 09:32:15;;;;;;;;;;;2.60;99.90;;;;;;10528614;28;20010;-63
2021/01/31 09:37:22;;;;;;;;;;;2.70;99.90;;;;;;10528233;28;19968;-63
2021/01/31 09:42:27;;;;;;;;;;;2.90;99.90;;;;;;10529334;28;19928;-63
2021/01/31 09:47:29;;;;;;;;;;;3.00;99.90;;;;;;10527446;28;19928;-63
2021/01/31 09:52:33;;;;;;;;;;;3.00;99.90;;;;;;10529466;28;19924;-63
2021/01/31 09:57:34;;;;;;;;;;;3.00;99.90;;;;;;10528967;28;19928;-63
2021/01/31 10:02:37;;;;;;;;;;;3.00;99.90;;;;;;10528911;28;20431;-63
2021/01/31 10:07:42;;;;;;;;;;;3.00;99.90;;;;;;10529069;28;19973;-63
2021/01/31 10:12:46;;;;;;;;;;;3.10;99.90;;;;;;10528659;28;19963;-63
2021/01/31 10:17:47;;;;;;;;;;;3.20;99.90;;;;;;10528346;28;19931;-63
2021/01/31 10:22:49;;;;;;;;;;;3.10;99.90;;;;;;10528578;28;19993;-63
2021/01/31 10:27:51;;;;;;;;;;;3.00;99.90;;;;;;10528689;28;19938;-63
2021/01/31 10:32:52;;;;;;;;;;;3.00;99.90;;;;;;10528068;28;20362;-63
2021/01/31 10:37:54;;;;;;;;;;;3.10;99.90;;;;;;10528383;28;19924;-63
2021/01/31 10:42:55;;;;;;;;;;;3.10;99.90;;;;;;10527939;28;19928;-63
2021/01/31 10:47:57;;;;;;;;;;;3.30;99.90;;;;;;10527783;28;20439;-63
2021/01/31 10:52:58;;;;;;;;;;;3.70;99.90;;;;;;10528103;28;19993;-63
2021/01/31 10:57:59;;;;;;;;;;;3.60;99.90;;;;;;10558583;28;19971;-63
2021/01/31 11:03:03;;;;;;;;;;;3.80;99.90;;;;;;10527628;28;19977;-63
2021/01/31 11:08:05;;;;;;;;;;;4.00;99.90;;;;;;10530327;28;19923;-63
2021/01/31 11:13:07;;;;;;;;;;;4.00;99.90;;;;;;10535184;28;20280;-63
2021/01/31 11:18:08;;;;;;;;;;;4.10;99.90;;;;;;10534147;28;20023;-63
2021/01/31 11:23:10;;;;;;;;;;;4.20;99.90;;;;;;10534571;28;19971;-64
2021/01/31 11:28:11;;;;;;;;;;;4.00;99.90;;;;;;10532636;28;19972;-64
2021/01/31 11:33:13;;;;;;;;;;;4.30;99.90;;;;;;10534557;28;19998;-63
2021/01/31 11:38:15;;;;;;;;;;;4.50;99.90;;;;;;10534033;28;19924;-64
2021/01/31 11:43:20;;;;;;;;;;;4.20;99.90;;;;;;10531699;28;19935;-63
2021/01/31 11:48:22;;;;;;;;;;;3.70;99.90;;;;;;10529919;28;19932;-63
2021/01/31 11:53:23;;;;;;;;;;;3.80;99.90;;;;;;10533375;28;19967;-63
2021/01/31 11:58:24;;;;;;;;;;;3.80;99.90;;;;;;10531562;28;20368;-63
2021/01/31 12:03:26;;;;;;;;;;;4.00;99.90;;;;;;10565044;27;19978;-64
2021/01/31 12:08:28;;;;;;;;;;;4.20;99.90;;;;;;10532096;28;20307;-63
2021/01/31 12:13:30;;;;;;;;;;;4.20;99.90;;;;;;10530965;28;19971;-63
2021/01/31 12:18:31;;;;;;;;;;;4.20;99.90;;;;;;10512091;28;20330;-64
2021/01/31 12:23:33;;;;;;;;;;;4.00;99.90;;;;;;10536018;28;19928;-64
2021/01/31 12:28:34;;;;;;;;;;;4.00;99.90;;;;;;10535123;28;19924;-64
2021/01/31 12:33:36;;;;;;;;;;;3.90;99.90;;;;;;10558798;28;20177;-63
2021/01/31 12:38:37;;;;;;;;;;;3.60;99.90;;;;;;10537069;28;19931;-64
2021/01/31 12:43:39;;;;;;;;;;;3.60;99.90;;;;;;10527956;28;19928;-64
2021/01/31 12:48:58;;;;;;;;;;;3.70;99.90;;;;;;10529029;28;20078;-64
2021/01/31 12:53:59;;;;;;;;;;;3.50;99.90;;;;;;10558433;27;20023;-64
2021/01/31 12:59:02;;;;;;;;;;;3.50;99.90;;;;;;10528099;28;19993;-64
2021/01/31 13:04:03;;;;;;;;;;;3.60;99.90;;;;;;10559772;28;20055;-63
2021/01/31 13:09:05;;;;;;;;;;;3.30;99.90;;;;;;10555892;28;19931;-63
2021/01/31 13:14:06;;;;;;;;;;;3.60;99.90;;;;;;10523362;28;20022;-63
2021/01/31 13:19:08;;;;;;;;;;;3.80;99.90;;;;;;10505462;28;19930;-64
2021/01/31 13:24:09;;;;;;;;;;;3.70;99.90;;;;;;10527298;28;20275;-63
2021/01/31 13:29:11;;;;;;;;;;;3.80;99.90;;;;;;10524792;28;19928;-63
2021/01/31 13:34:13;;;;;;;;;;;3.90;99.90;;;;;;10526387;28;19932;-64
2021/01/31 13:39:15;;;;;;;;;;;3.80;99.90;;;;;;10523795;28;20019;-64
2021/01/31 13:44:16;;;;;;;;;;;3.60;99.90;;;;;;10527043;28;19931;-64
2021/01/31 13:49:18;;;;;;;;;;;3.30;99.90;;;;;;10527557;28;19985;-63
2021/01/31 13:54:19;;;;;;;;;;;3.30;99.90;;;;;;10514095;28;19930;-65
2021/01/31 13:59:21;;;;;;;;;;;3.50;99.90;;;;;;10527313;28;19928;-65
2021/01/31 14:04:22;;;;;;;;;;;3.40;99.90;;;;;;10526748;28;19959;-64
2021/01/31 14:09:24;;;;;;;;;;;3.20;99.90;;;;;;10527164;28;19924;-65
2021/01/31 14:14:25;;;;;;;;;;;3.40;99.90;;;;;;10520382;28;20023;-64
2021/01/31 14:19:27;;;;;;;;;;;3.40;99.90;;;;;;10519773;28;19930;-65
2021/01/31 14:24:29;;;;;;;;;;;3.50;99.90;;;;;;10526134;28;20483;-64
2021/01/31 14:29:30;;;;;;;;;;;3.60;99.90;;;;;;10530826;28;19981;-65
2021/01/31 14:34:32;;;;;;;;;;;3.70;99.90;;;;;;10526230;28;20019;-64
2021/01/31 14:39:37;;;;;;;;;;;3.70;99.90;;;;;;10526677;28;20003;-65
2021/01/31 14:44:39;;;;;;;;;;;3.40;99.90;;;;;;10532114;28;19925;-64
2021/01/31 14:49:40;;;;;;;;;;;3.40;99.90;;;;;;10526947;28;19966;-64
2021/01/31 14:54:41;;;;;;;;;;;3.40;99.90;;;;;;10518786;28;20444;-64
2021/01/31 14:59:43;;;;;;;;;;;3.60;99.90;;;;;;10533533;28;19931;-64
2021/01/31 15:04:44;;;;;;;;;;;3.80;99.90;;;;;;10533304;28;19972;-64
2021/01/31 15:09:45;;;;;;;;;;;3.90;99.90;;;;;;10518757;28;20387;-65
2021/01/31 15:14:47;;;;;;;;;;;3.80;99.90;;;;;;10503149;28;20389;-64
2021/01/31 15:19:49;;;;;;;;;;;3.80;99.90;;;;;;10516415;28;19931;-65
2021/01/31 15:24:50;;;;;;;;;;;3.80;99.90;;;;;;10553402;28;19928;-65
2021/01/31 15:29:51;;;;;;;;;;;3.60;99.90;;;;;;10532026;28;19962;-64
2021/01/31 15:34:57;;;;;;;;;;;3.50;99.90;;;;;;10532373;28;19924;-64
2021/01/31 15:39:58;;;;;;;;;;;3.50;99.90;;;;;;10533483;28;19924;-64
2021/01/31 15:45:00;;;;;;;;;;;3.60;99.90;;;;;;10534081;28;20073;-64
2021/01/31 15:50:01;;;;;;;;;;;3.70;99.90;;;;;;10531472;28;19924;-64
2021/01/31 15:55:06;;;;;;;;;;;3.60;99.90;;;;;;10530262;28;19955;-65
2021/01/31 16:00:17;;;;;;;;;;;3.60;99.90;;;;;;10529962;28;19924;-64
2021/01/31 16:05:20;;;;;;;;;;;3.60;99.90;;;;;;10530316;28;20027;-65
2021/01/31 16:10:22;;;;;;;;;;;3.60;99.90;;;;;;10530626;28;19935;-65
2021/01/31 16:15:25;;;;;;;;;;;3.70;99.90;;;;;;10513993;28;19971;-65
2021/01/31 16:20:29;;;;;;;;;;;3.70;99.90;;;;;;10513736;28;19931;-64
2021/01/31 16:25:32;;;;;;;;;;;3.60;99.90;;;;;;10495657;28;19924;-65
2021/01/31 16:30:35;;;;;;;;;;;3.60;99.90;;;;;;10528761;28;19924;-65
2021/01/31 16:35:38;;;;;;;;;;;3.70;99.90;;;;;;10528023;28;19931;-65
2021/01/31 16:40:40;;;;;;;;;;;3.60;99.90;;;;;;10528720;28;20392;-65
2021/01/31 16:45:47;;;;;;;;;;;3.50;99.90;;;;;;10528954;28;19928;-64
2021/01/31 16:50:49;;;;;;;;;;;3.50;99.90;;;;;;10524338;28;19963;-64
2021/01/31 16:55:52;;;;;;;;;;;3.40;99.90;;;;;;10520528;28;20580;-64
2021/01/31 17:00:53;;;;;;;;;;;3.50;99.90;;;;;;10527985;28;19925;-64
2021/01/31 17:06:00;;;;;;;;;;;3.70;99.90;;;;;;10533246;28;20288;-64
2021/01/31 17:11:01;;;;;;;;;;;3.40;99.90;;;;;;10551161;28;19924;-64
2021/01/31 17:16:04;;;;;;;;;;;3.30;99.90;;;;;;10556231;28;20390;-65
2021/01/31 17:21:05;;;;;;;;;;;3.10;99.90;;;;;;10508705;28;20345;-64
2021/01/31 17:26:07;;;;;;;;;;;3.20;99.90;;;;;;10492864;28;20016;-64
2021/01/31 17:31:08;;;;;;;;;;;3.30;99.90;;;;;;10512297;28;20361;-64
2021/01/31 17:36:10;;;;;;;;;;;3.40;99.90;;;;;;10526744;28;19931;-65
2021/01/31 17:41:12;;;;;;;;;;;3.40;99.90;;;;;;10526538;28;19986;-65
2021/01/31 17:46:14;;;;;;;;;;;3.40;99.90;;;;;;10524721;28;20471;-65
2021/01/31 17:51:16;;;;;;;;;;;3.40;99.90;;;;;;10526453;28;20438;-65
2021/01/31 17:56:17;;;;;;;;;;;3.50;99.90;;;;;;10505651;28;19968;-65
2021/01/31 18:01:18;;;;;;;;;;;3.30;99.90;;;;;;10521400;28;19963;-65
2021/01/31 18:06:19;;;;;;;;;;;3.10;99.90;;;;;;10515254;28;20445;-65
2021/01/31 18:11:21;;;;;;;;;;;3.20;99.90;;;;;;10522359;28;20367;-65
2021/01/31 18:16:22;;;;;;;;;;;3.10;99.90;;;;;;10528427;28;19924;-65
2021/01/31 18:21:24;;;;;;;;;;;3.10;99.90;;;;;;10526731;28;20221;-65
2021/01/31 18:26:29;;;;;;;;;;;3.20;99.90;;;;;;10503910;28;19970;-65
2021/01/31 18:31:32;;;;;;;;;;;3.20;99.90;;;;;;10532353;28;19954;-72
2021/01/31 18:36:33;;;;;;;;;;;3.00;99.90;;;;;;10533969;28;19979;-72
2021/01/31 18:41:35;;;;;;;;;;;3.00;99.90;;;;;;10532789;28;19924;-72
2021/01/31 18:46:38;;;;;;;;;;;3.00;99.90;;;;;;10534072;28;19928;-71
2021/01/31 18:51:40;;;;;;;;;;;3.00;99.90;;;;;;10520044;28;20396;-71
2021/01/31 18:56:45;;;;;;;;;;;2.90;99.90;;;;;;10532309;28;19970;-72
2021/01/31 19:01:46;;;;;;;;;;;2.80;99.90;;;;;;10532204;28;20439;-72
2021/01/31 19:06:50;;;;;;;;;;;2.80;99.90;;;;;;10533323;28;19974;-72
2021/01/31 19:11:52;;;;;;;;;;;2.80;99.90;;;;;;10533283;28;20407;-71
2021/01/31 19:16:53;;;;;;;;;;;2.70;99.90;;;;;;10533670;28;20018;-72
2021/01/31 19:21:55;;;;;;;;;;;2.80;99.90;;;;;;10534669;28;19932;-72
2021/01/31 19:26:56;;;;;;;;;;;2.90;99.90;;;;;;10534050;28;19924;-72
2021/01/31 19:31:59;;;;;;;;;;;2.80;99.90;;;;;;10534306;28;19973;-72
2021/01/31 19:37:01;;;;;;;;;;;2.70;99.90;;;;;;10534365;28;20292;-72
2021/01/31 19:42:03;;;;;;;;;;;2.50;99.90;;;;;;10535186;28;19927;-72
2021/01/31 19:47:05;;;;;;;;;;;2.40;99.90;;;;;;10534010;28;19977;-72
2021/01/31 19:52:07;;;;;;;;;;;2.40;99.90;;;;;;10532506;28;20390;-71
2021/01/31 19:57:09;;;;;;;;;;;2.30;99.90;;;;;;10531755;28;19924;-71
2021/01/31 20:02:11;;;;;;;;;;;2.40;99.90;;;;;;10530886;28;19977;-71
2021/01/31 20:07:13;;;;;;;;;;;2.40;99.90;;;;;;10531538;28;20410;-71
2021/01/31 20:12:15;;;;;;;;;;;2.50;99.90;;;;;;10531148;28;20335;-71
2021/01/31 20:17:17;;;;;;;;;;;2.50;99.90;;;;;;10529537;28;19983;-72
2021/01/31 20:22:18;;;;;;;;;;;2.40;99.90;;;;;;10562310;27;20007;-71
2021/01/31 20:27:19;;;;;;;;;;;2.50;99.90;;;;;;10529751;28;20269;-71
2021/01/31 20:32:21;;;;;;;;;;;2.50;99.90;;;;;;10529933;28;19975;-71
2021/01/31 20:37:22;;;;;;;;;;;2.50;99.90;;;;;;10529481;28;20015;-72
2021/01/31 20:42:23;;;;;;;;;;;2.60;99.90;;;;;;10530044;28;20023;-71
2021/01/31 20:47:25;;;;;;;;;;;2.60;99.90;;;;;;10529120;28;19924;-71
2021/01/31 20:52:26;;;;;;;;;;;2.70;99.90;;;;;;10529438;28;20065;-71
2021/01/31 20:57:27;;;;;;;;;;;2.70;99.90;;;;;;10527725;28;20058;-71
2021/01/31 21:02:29;;;;;;;;;;;2.70;99.90;;;;;;10527792;28;19950;-71
2021/01/31 21:07:30;;;;;;;;;;;2.60;99.90;;;;;;10529164;28;19963;-72
2021/01/31 21:12:31;;;;;;;;;;;2.70;99.90;;;;;;10529162;28;19967;-71
2021/01/31 21:17:33;;;;;;;;;;;2.70;99.90;;;;;;10527747;28;19975;-72
2021/01/31 21:22:34;;;;;;;;;;;2.80;99.90;;;;;;10525707;28;19992;-72
2021/01/31 21:27:36;;;;;;;;;;;2.80;99.90;;;;;;10528191;28;20403;-71
2021/01/31 21:32:37;;;;;;;;;;;2.80;99.90;;;;;;10527682;28;19936;-71
2021/01/31 21:37:38;;;;;;;;;;;2.70;99.90;;;;;;10527772;28;19924;-72
2021/01/31 21:42:40;;;;;;;;;;;2.70;99.90;;;;;;10526785;28;19979;-71
2021/01/31 21:47:42;;;;;;;;;;;2.80;99.90;;;;;;10527498;28;19971;-71
2021/01/31 21:52:43;;;;;;;;;;;2.80;99.90;;;;;;10528094;28;20364;-71
2021/01/31 21:57:44;;;;;;;;;;;2.90;99.90;;;;;;10509919;28;19971;-71
2021/01/31 22:02:46;;;;;;;;;;;2.90;99.90;;;;;;10527889;28;19971;-71
2021/01/31 22:07:47;;;;;;;;;;;2.90;99.90;;;;;;10527300;28;20209;-71
2021/01/31 22:12:49;;;;;;;;;;;2.80;99.90;;;;;;10528320;28;19932;-71
2021/01/31 22:17:50;;;;;;;;;;;2.80;99.90;;;;;;10525767;28;20528;-71
2021/01/31 22:22:53;;;;;;;;;;;2.90;99.90;;;;;;10525974;28;19932;-71
2021/01/31 22:27:56;;;;;;;;;;;2.90;99.90;;;;;;10527430;28;19970;-71
2021/01/31 22:32:58;;;;;;;;;;;2.90;99.90;;;;;;10526764;28;20284;-71
2021/01/31 22:37:59;;;;;;;;;;;2.90;99.90;;;;;;10526887;28;19928;-71
2021/01/31 22:43:01;;;;;;;;;;;2.80;99.90;;;;;;10526920;28;19938;-71
2021/01/31 22:48:03;;;;;;;;;;;2.80;99.90;;;;;;10526809;28;19949;-71
2021/01/31 22:53:05;;;;;;;;;;;2.80;99.90;;;;;;10527925;28;19924;-71
2021/01/31 22:58:09;;;;;;;;;;;2.90;99.90;;;;;;10526700;28;20395;-71
2021/01/31 23:03:11;;;;;;;;;;;2.80;99.90;;;;;;10530183;28;20015;-70
2021/01/31 23:08:15;;;;;;;;;;;2.90;99.90;;;;;;10534261;28;19999;-71
2021/01/31 23:13:20;;;;;;;;;;;2.90;99.90;;;;;;10534119;28;19997;-71
2021/01/31 23:18:21;;;;;;;;;;;2.90;99.90;;;;;;10533384;28;20360;-71
2021/01/31 23:23:22;;;;;;;;;;;2.90;99.90;;;;;;10534212;28;20396;-71
2021/01/31 23:28:24;;;;;;;;;;;3.00;99.90;;;;;;10533617;28;19925;-70
2021/01/31 23:33:25;;;;;;;;;;;3.10;99.90;;;;;;10533178;28;19935;-71
2021/01/31 23:38:26;;;;;;;;;;;3.10;99.90;;;;;;10532532;28;20014;-72
2021/01/31 23:43:28;;;;;;;;;;;3.10;99.90;;;;;;10532217;28;20419;-71
2021/01/31 23:48:29;;;;;;;;;;;3.00;99.90;;;;;;10532468;28;20006;-71
2021/01/31 23:53:30;;;;;;;;;;;2.90;99.90;;;;;;10532809;28;19924;-71
2021/01/31 23:58:32;;;;;;;;;;;2.80;99.90;;;;;;10531383;28;20548;-71
